sensor_id;sensor_type;location;lat;lon;timestamp;P1;durP1;ratioP1;P2;durP2;ratioP2
43710;SDS011;29309;42.682;23.372;2022-12-18T00:01:42;11.23;;;5.20;;
43710;SDS011;29309;42.682;23.372;2022-12-18T00:04:12;9.18;;;5.05;;
43710;SDS011;29309;42.682;23.372;2022-12-18T00:06:43;6.90;;;4.30;;
43710;SDS011;29309;42.682;23.372;2022-12-18T00:09:09;7.07;;;4.68;;
43710;SDS011;29309;42.682;23.372;2022-12-18T00:11:35;6.57;;;4.60;;
43710;SDS011;29309;42.682;23.372;2022-12-18T00:14:00;7.43;;;4.82;;
43710;SDS011;29309;42.682;23.372;2022-12-18T00:16:26;12.10;;;6.40;;
43710;SDS011;29309;42.682;23.372;2022-12-18T00:18:54;10.45;;;6.03;;
43710;SDS011;29309;42.682;23.372;2022-12-18T00:21:20;8.65;;;5.18;;
43710;SDS011;29309;42.682;23.372;2022-12-18T00:23:47;10.10;;;6.00;;
43710;SDS011;29309;42.682;23.372;2022-12-18T00:26:15;9.07;;;5.57;;
43710;SDS011;29309;42.682;23.372;2022-12-18T00:28:42;10.90;;;5.63;;
43710;SDS011;29309;42.682;23.372;2022-12-18T00:31:09;8.38;;;5.18;;
43710;SDS011;29309;42.682;23.372;2022-12-18T00:33:37;8.27;;;4.88;;
43710;SDS011;29309;42.682;23.372;2022-12-18T00:36:21;8.60;;;5.10;;
43710;SDS011;29309;42.682;23.372;2022-12-18T00:38:53;10.10;;;5.68;;
43710;SDS011;29309;42.682;23.372;2022-12-18T00:41:20;9.40;;;5.75;;
43710;SDS011;29309;42.682;23.372;2022-12-18T00:44:04;9.68;;;5.75;;
43710;SDS011;29309;42.682;23.372;2022-12-18T00:46:31;9.02;;;5.45;;
43710;SDS011;29309;42.682;23.372;2022-12-18T00:48:57;9.85;;;5.25;;
43710;SDS011;29309;42.682;23.372;2022-12-18T00:51:23;8.70;;;5.63;;
43710;SDS011;29309;42.682;23.372;2022-12-18T00:53:49;9.93;;;5.15;;
43710;SDS011;29309;42.682;23.372;2022-12-18T00:56:15;7.70;;;4.82;;
43710;SDS011;29309;42.682;23.372;2022-12-18T00:58:40;10.27;;;5.30;;
43710;SDS011;29309;42.682;23.372;2022-12-18T01:01:06;10.07;;;5.45;;
43710;SDS011;29309;42.682;23.372;2022-12-18T01:03:32;10.93;;;5.53;;
43710;SDS011;29309;42.682;23.372;2022-12-18T01:05:58;10.13;;;5.35;;
43710;SDS011;29309;42.682;23.372;2022-12-18T01:08:23;8.18;;;5.40;;
43710;SDS011;29309;42.682;23.372;2022-12-18T01:10:49;9.50;;;5.38;;
43710;SDS011;29309;42.682;23.372;2022-12-18T01:13:14;10.18;;;5.95;;
43710;SDS011;29309;42.682;23.372;2022-12-18T01:15:40;8.52;;;5.40;;
43710;SDS011;29309;42.682;23.372;2022-12-18T01:18:06;10.07;;;5.80;;
43710;SDS011;29309;42.682;23.372;2022-12-18T01:20:32;12.07;;;5.63;;
43710;SDS011;29309;42.682;23.372;2022-12-18T01:22:57;11.10;;;5.95;;
43710;SDS011;29309;42.682;23.372;2022-12-18T01:25:23;7.60;;;5.03;;
43710;SDS011;29309;42.682;23.372;2022-12-18T01:28:06;11.57;;;6.18;;
43710;SDS011;29309;42.682;23.372;2022-12-18T01:30:32;8.75;;;5.90;;
43710;SDS011;29309;42.682;23.372;2022-12-18T01:32:57;10.30;;;5.75;;
43710;SDS011;29309;42.682;23.372;2022-12-18T01:35:23;10.25;;;5.55;;
43710;SDS011;29309;42.682;23.372;2022-12-18T01:37:48;10.93;;;6.20;;
43710;SDS011;29309;42.682;23.372;2022-12-18T01:40:13;10.20;;;5.88;;
43710;SDS011;29309;42.682;23.372;2022-12-18T01:42:39;13.75;;;7.00;;
43710;SDS011;29309;42.682;23.372;2022-12-18T01:52:55;12.23;;;6.60;;
43710;SDS011;29309;42.682;23.372;2022-12-18T01:55:26;11.18;;;6.10;;
43710;SDS011;29309;42.682;23.372;2022-12-18T01:57:56;11.45;;;6.22;;
43710;SDS011;29309;42.682;23.372;2022-12-18T02:00:24;10.20;;;6.28;;
43710;SDS011;29309;42.682;23.372;2022-12-18T02:02:51;15.00;;;6.80;;
43710;SDS011;29309;42.682;23.372;2022-12-18T02:05:22;10.52;;;6.43;;
43710;SDS011;29309;42.682;23.372;2022-12-18T02:10:46;14.07;;;6.63;;
43710;SDS011;29309;42.682;23.372;2022-12-18T02:13:31;9.18;;;5.07;;
43710;SDS011;29309;42.682;23.372;2022-12-18T02:16:09;11.88;;;5.78;;
43710;SDS011;29309;42.682;23.372;2022-12-18T02:18:38;10.70;;;5.78;;
43710;SDS011;29309;42.682;23.372;2022-12-18T02:21:31;10.77;;;5.47;;
43710;SDS011;29309;42.682;23.372;2022-12-18T02:27:01;11.68;;;5.72;;
43710;SDS011;29309;42.682;23.372;2022-12-18T02:29:51;10.48;;;5.95;;
43710;SDS011;29309;42.682;23.372;2022-12-18T02:32:18;11.88;;;5.30;;
43710;SDS011;29309;42.682;23.372;2022-12-18T02:34:48;8.43;;;4.50;;
43710;SDS011;29309;42.682;23.372;2022-12-18T02:37:16;7.45;;;4.63;;
43710;SDS011;29309;42.682;23.372;2022-12-18T02:39:43;10.48;;;5.57;;
43710;SDS011;29309;42.682;23.372;2022-12-18T02:42:11;10.88;;;6.30;;
43710;SDS011;29309;42.682;23.372;2022-12-18T02:44:48;10.27;;;5.97;;
43710;SDS011;29309;42.682;23.372;2022-12-18T02:47:15;9.55;;;5.38;;
43710;SDS011;29309;42.682;23.372;2022-12-18T02:52:15;10.13;;;5.97;;
43710;SDS011;29309;42.682;23.372;2022-12-18T02:55:00;10.52;;;5.50;;
43710;SDS011;29309;42.682;23.372;2022-12-18T02:57:48;9.75;;;5.20;;
43710;SDS011;29309;42.682;23.372;2022-12-18T03:00:20;8.52;;;5.63;;
43710;SDS011;29309;42.682;23.372;2022-12-18T03:07:59;11.77;;;5.75;;
43710;SDS011;29309;42.682;23.372;2022-12-18T03:10:32;10.15;;;5.43;;
43710;SDS011;29309;42.682;23.372;2022-12-18T03:13:11;9.00;;;5.47;;
43710;SDS011;29309;42.682;23.372;2022-12-18T03:15:47;9.23;;;5.95;;
43710;SDS011;29309;42.682;23.372;2022-12-18T03:18:17;11.93;;;6.38;;
43710;SDS011;29309;42.682;23.372;2022-12-18T03:20:47;9.05;;;5.80;;
43710;SDS011;29309;42.682;23.372;2022-12-18T03:23:18;10.30;;;6.03;;
43710;SDS011;29309;42.682;23.372;2022-12-18T03:25:48;8.15;;;5.57;;
43710;SDS011;29309;42.682;23.372;2022-12-18T03:28:20;11.65;;;5.88;;
43710;SDS011;29309;42.682;23.372;2022-12-18T03:30:47;9.63;;;5.13;;
43710;SDS011;29309;42.682;23.372;2022-12-18T03:35:50;11.45;;;6.00;;
43710;SDS011;29309;42.682;23.372;2022-12-18T03:38:16;9.38;;;5.57;;
43710;SDS011;29309;42.682;23.372;2022-12-18T03:46:08;8.45;;;5.68;;
43710;SDS011;29309;42.682;23.372;2022-12-18T03:48:43;9.38;;;5.45;;
43710;SDS011;29309;42.682;23.372;2022-12-18T03:51:20;13.38;;;5.95;;
43710;SDS011;29309;42.682;23.372;2022-12-18T03:53:55;7.70;;;4.90;;
43710;SDS011;29309;42.682;23.372;2022-12-18T03:56:25;9.00;;;5.82;;
43710;SDS011;29309;42.682;23.372;2022-12-18T03:58:54;11.15;;;6.35;;
43710;SDS011;29309;42.682;23.372;2022-12-18T04:01:25;10.85;;;5.30;;
43710;SDS011;29309;42.682;23.372;2022-12-18T04:03:55;11.65;;;6.20;;
43710;SDS011;29309;42.682;23.372;2022-12-18T04:06:24;9.60;;;5.57;;
43710;SDS011;29309;42.682;23.372;2022-12-18T04:08:50;10.32;;;5.15;;
43710;SDS011;29309;42.682;23.372;2022-12-18T04:11:16;15.43;;;6.07;;
43710;SDS011;29309;42.682;23.372;2022-12-18T04:13:42;12.57;;;5.95;;
43710;SDS011;29309;42.682;23.372;2022-12-18T04:16:08;10.98;;;5.80;;
43710;SDS011;29309;42.682;23.372;2022-12-18T04:18:34;12.52;;;5.88;;
43710;SDS011;29309;42.682;23.372;2022-12-18T04:21:00;11.10;;;6.22;;
43710;SDS011;29309;42.682;23.372;2022-12-18T04:23:26;13.32;;;6.38;;
43710;SDS011;29309;42.682;23.372;2022-12-18T04:25:51;11.43;;;7.22;;
43710;SDS011;29309;42.682;23.372;2022-12-18T04:28:17;12.50;;;6.30;;
43710;SDS011;29309;42.682;23.372;2022-12-18T04:30:43;9.70;;;6.05;;
43710;SDS011;29309;42.682;23.372;2022-12-18T04:33:11;12.45;;;6.68;;
43710;SDS011;29309;42.682;23.372;2022-12-18T04:35:38;12.48;;;6.30;;
43710;SDS011;29309;42.682;23.372;2022-12-18T04:38:05;13.82;;;7.35;;
43710;SDS011;29309;42.682;23.372;2022-12-18T04:40:32;14.02;;;7.60;;
43710;SDS011;29309;42.682;23.372;2022-12-18T04:42:57;12.55;;;6.53;;
43710;SDS011;29309;42.682;23.372;2022-12-18T04:45:22;11.60;;;6.50;;
43710;SDS011;29309;42.682;23.372;2022-12-18T04:47:48;16.08;;;6.47;;
43710;SDS011;29309;42.682;23.372;2022-12-18T04:50:13;14.10;;;7.28;;
43710;SDS011;29309;42.682;23.372;2022-12-18T04:52:38;13.63;;;7.47;;
43710;SDS011;29309;42.682;23.372;2022-12-18T04:55:04;12.88;;;7.47;;
43710;SDS011;29309;42.682;23.372;2022-12-18T04:57:30;11.95;;;6.90;;
43710;SDS011;29309;42.682;23.372;2022-12-18T04:59:55;13.90;;;7.50;;
43710;SDS011;29309;42.682;23.372;2022-12-18T05:02:20;15.98;;;7.28;;
43710;SDS011;29309;42.682;23.372;2022-12-18T05:04:46;14.23;;;7.43;;
43710;SDS011;29309;42.682;23.372;2022-12-18T05:07:11;14.00;;;7.35;;
43710;SDS011;29309;42.682;23.372;2022-12-18T05:09:37;13.90;;;7.05;;
43710;SDS011;29309;42.682;23.372;2022-12-18T05:12:02;15.75;;;8.73;;
43710;SDS011;29309;42.682;23.372;2022-12-18T05:14:28;14.85;;;8.02;;
43710;SDS011;29309;42.682;23.372;2022-12-18T05:16:54;16.25;;;8.25;;
43710;SDS011;29309;42.682;23.372;2022-12-18T05:19:19;13.77;;;7.72;;
43710;SDS011;29309;42.682;23.372;2022-12-18T05:21:45;16.25;;;8.45;;
43710;SDS011;29309;42.682;23.372;2022-12-18T05:24:10;13.57;;;7.93;;
43710;SDS011;29309;42.682;23.372;2022-12-18T05:26:36;15.52;;;8.23;;
43710;SDS011;29309;42.682;23.372;2022-12-18T05:29:02;17.65;;;7.63;;
43710;SDS011;29309;42.682;23.372;2022-12-18T05:31:27;13.40;;;8.20;;
43710;SDS011;29309;42.682;23.372;2022-12-18T05:33:52;15.68;;;9.00;;
43710;SDS011;29309;42.682;23.372;2022-12-18T05:36:19;17.17;;;8.63;;
43710;SDS011;29309;42.682;23.372;2022-12-18T05:38:44;16.83;;;8.75;;
43710;SDS011;29309;42.682;23.372;2022-12-18T05:41:09;15.20;;;8.20;;
43710;SDS011;29309;42.682;23.372;2022-12-18T05:43:36;15.70;;;8.13;;
43710;SDS011;29309;42.682;23.372;2022-12-18T05:46:03;17.80;;;8.70;;
43710;SDS011;29309;42.682;23.372;2022-12-18T05:48:33;12.68;;;7.47;;
43710;SDS011;29309;42.682;23.372;2022-12-18T05:51:03;19.38;;;9.93;;
43710;SDS011;29309;42.682;23.372;2022-12-18T05:53:31;17.50;;;8.30;;
43710;SDS011;29309;42.682;23.372;2022-12-18T05:55:59;17.70;;;8.57;;
43710;SDS011;29309;42.682;23.372;2022-12-18T05:58:26;22.10;;;9.75;;
43710;SDS011;29309;42.682;23.372;2022-12-18T06:00:51;23.33;;;11.00;;
43710;SDS011;29309;42.682;23.372;2022-12-18T06:03:17;25.40;;;10.70;;
43710;SDS011;29309;42.682;23.372;2022-12-18T06:05:43;18.92;;;9.63;;
43710;SDS011;29309;42.682;23.372;2022-12-18T06:08:10;15.40;;;8.35;;
43710;SDS011;29309;42.682;23.372;2022-12-18T06:10:37;17.23;;;8.55;;
43710;SDS011;29309;42.682;23.372;2022-12-18T06:13:03;19.70;;;9.23;;
43710;SDS011;29309;42.682;23.372;2022-12-18T06:15:29;17.83;;;8.52;;
43710;SDS011;29309;42.682;23.372;2022-12-18T06:17:55;19.38;;;8.98;;
43710;SDS011;29309;42.682;23.372;2022-12-18T06:20:20;15.77;;;9.02;;
43710;SDS011;29309;42.682;23.372;2022-12-18T06:22:46;16.13;;;8.93;;
43710;SDS011;29309;42.682;23.372;2022-12-18T06:25:11;16.58;;;9.02;;
43710;SDS011;29309;42.682;23.372;2022-12-18T06:27:37;17.42;;;10.23;;
43710;SDS011;29309;42.682;23.372;2022-12-18T06:30:02;20.60;;;9.63;;
43710;SDS011;29309;42.682;23.372;2022-12-18T06:32:28;17.17;;;9.32;;
43710;SDS011;29309;42.682;23.372;2022-12-18T06:34:54;22.33;;;9.55;;
43710;SDS011;29309;42.682;23.372;2022-12-18T06:37:20;20.85;;;9.93;;
43710;SDS011;29309;42.682;23.372;2022-12-18T06:39:46;19.30;;;8.95;;
43710;SDS011;29309;42.682;23.372;2022-12-18T06:42:11;19.58;;;9.98;;
43710;SDS011;29309;42.682;23.372;2022-12-18T06:44:37;15.95;;;8.55;;
43710;SDS011;29309;42.682;23.372;2022-12-18T06:47:02;21.63;;;9.35;;
43710;SDS011;29309;42.682;23.372;2022-12-18T06:49:28;18.83;;;9.48;;
43710;SDS011;29309;42.682;23.372;2022-12-18T06:51:53;20.45;;;10.40;;
43710;SDS011;29309;42.682;23.372;2022-12-18T06:54:18;19.20;;;9.75;;
43710;SDS011;29309;42.682;23.372;2022-12-18T06:56:47;18.75;;;9.25;;
43710;SDS011;29309;42.682;23.372;2022-12-18T06:59:13;25.50;;;11.25;;
43710;SDS011;29309;42.682;23.372;2022-12-18T07:01:39;20.38;;;9.70;;
43710;SDS011;29309;42.682;23.372;2022-12-18T07:04:05;19.10;;;9.73;;
43710;SDS011;29309;42.682;23.372;2022-12-18T07:06:30;23.88;;;9.48;;
43710;SDS011;29309;42.682;23.372;2022-12-18T07:08:56;22.17;;;9.20;;
43710;SDS011;29309;42.682;23.372;2022-12-18T07:11:21;15.38;;;8.07;;
43710;SDS011;29309;42.682;23.372;2022-12-18T07:13:47;19.63;;;9.80;;
43710;SDS011;29309;42.682;23.372;2022-12-18T07:16:17;19.50;;;9.13;;
43710;SDS011;29309;42.682;23.372;2022-12-18T07:18:44;17.85;;;9.00;;
43710;SDS011;29309;42.682;23.372;2022-12-18T07:21:10;20.17;;;8.60;;
43710;SDS011;29309;42.682;23.372;2022-12-18T07:23:38;19.02;;;9.02;;
43710;SDS011;29309;42.682;23.372;2022-12-18T07:26:04;17.75;;;9.38;;
43710;SDS011;29309;42.682;23.372;2022-12-18T07:28:34;18.50;;;8.30;;
43710;SDS011;29309;42.682;23.372;2022-12-18T07:31:04;26.33;;;9.30;;
43710;SDS011;29309;42.682;23.372;2022-12-18T07:33:38;17.85;;;8.57;;
43710;SDS011;29309;42.682;23.372;2022-12-18T07:36:04;21.08;;;10.13;;
43710;SDS011;29309;42.682;23.372;2022-12-18T07:38:32;18.65;;;9.80;;
43710;SDS011;29309;42.682;23.372;2022-12-18T07:41:06;21.77;;;10.35;;
43710;SDS011;29309;42.682;23.372;2022-12-18T07:43:33;23.10;;;10.55;;
43710;SDS011;29309;42.682;23.372;2022-12-18T07:45:59;20.35;;;10.38;;
43710;SDS011;29309;42.682;23.372;2022-12-18T07:48:25;22.20;;;10.65;;
43710;SDS011;29309;42.682;23.372;2022-12-18T07:50:51;21.73;;;10.43;;
43710;SDS011;29309;42.682;23.372;2022-12-18T07:53:17;18.25;;;9.50;;
43710;SDS011;29309;42.682;23.372;2022-12-18T07:55:42;22.20;;;11.23;;
43710;SDS011;29309;42.682;23.372;2022-12-18T07:58:07;20.30;;;10.52;;
43710;SDS011;29309;42.682;23.372;2022-12-18T08:00:33;25.45;;;11.23;;
43710;SDS011;29309;42.682;23.372;2022-12-18T08:02:59;23.92;;;11.43;;
43710;SDS011;29309;42.682;23.372;2022-12-18T08:05:25;21.10;;;10.18;;
43710;SDS011;29309;42.682;23.372;2022-12-18T08:07:51;24.42;;;11.23;;
43710;SDS011;29309;42.682;23.372;2022-12-18T08:10:17;24.40;;;11.15;;
43710;SDS011;29309;42.682;23.372;2022-12-18T08:12:48;24.05;;;10.50;;
43710;SDS011;29309;42.682;23.372;2022-12-18T08:18:00;22.02;;;10.43;;
43710;SDS011;29309;42.682;23.372;2022-12-18T08:20:26;23.73;;;11.25;;
43710;SDS011;29309;42.682;23.372;2022-12-18T08:22:51;29.30;;;12.88;;
43710;SDS011;29309;42.682;23.372;2022-12-18T08:25:17;26.98;;;12.93;;
43710;SDS011;29309;42.682;23.372;2022-12-18T08:27:42;24.00;;;12.48;;
43710;SDS011;29309;42.682;23.372;2022-12-18T08:30:08;21.95;;;11.80;;
43710;SDS011;29309;42.682;23.372;2022-12-18T08:32:34;23.13;;;11.88;;
43710;SDS011;29309;42.682;23.372;2022-12-18T08:34:59;23.05;;;11.63;;
43710;SDS011;29309;42.682;23.372;2022-12-18T08:37:25;20.05;;;10.30;;
43710;SDS011;29309;42.682;23.372;2022-12-18T08:39:50;24.45;;;12.25;;
43710;SDS011;29309;42.682;23.372;2022-12-18T08:42:16;25.65;;;11.82;;
43710;SDS011;29309;42.682;23.372;2022-12-18T08:45:19;23.10;;;10.52;;
43710;SDS011;29309;42.682;23.372;2022-12-18T08:47:45;22.80;;;10.77;;
43710;SDS011;29309;42.682;23.372;2022-12-18T08:50:10;21.80;;;11.40;;
43710;SDS011;29309;42.682;23.372;2022-12-18T08:52:37;20.75;;;10.93;;
43710;SDS011;29309;42.682;23.372;2022-12-18T08:55:02;22.70;;;10.65;;
43710;SDS011;29309;42.682;23.372;2022-12-18T08:57:28;20.08;;;10.38;;
43710;SDS011;29309;42.682;23.372;2022-12-18T08:59:53;24.23;;;10.98;;
43710;SDS011;29309;42.682;23.372;2022-12-18T09:02:19;22.13;;;10.88;;
43710;SDS011;29309;42.682;23.372;2022-12-18T09:04:46;19.55;;;10.10;;
43710;SDS011;29309;42.682;23.372;2022-12-18T09:07:12;21.40;;;9.75;;
43710;SDS011;29309;42.682;23.372;2022-12-18T09:09:37;21.27;;;10.75;;
43710;SDS011;29309;42.682;23.372;2022-12-18T09:12:03;24.83;;;10.45;;
43710;SDS011;29309;42.682;23.372;2022-12-18T09:14:28;19.98;;;9.23;;
43710;SDS011;29309;42.682;23.372;2022-12-18T09:16:54;20.75;;;9.55;;
43710;SDS011;29309;42.682;23.372;2022-12-18T09:19:19;23.65;;;10.40;;
43710;SDS011;29309;42.682;23.372;2022-12-18T09:21:45;21.20;;;10.13;;
43710;SDS011;29309;42.682;23.372;2022-12-18T09:24:14;18.98;;;9.63;;
43710;SDS011;29309;42.682;23.372;2022-12-18T09:26:40;20.35;;;10.02;;
43710;SDS011;29309;42.682;23.372;2022-12-18T09:29:06;19.98;;;9.75;;
43710;SDS011;29309;42.682;23.372;2022-12-18T09:31:32;19.65;;;9.63;;
43710;SDS011;29309;42.682;23.372;2022-12-18T09:33:58;16.95;;;8.38;;
43710;SDS011;29309;42.682;23.372;2022-12-18T09:36:24;20.02;;;8.75;;
43710;SDS011;29309;42.682;23.372;2022-12-18T09:38:50;19.80;;;9.20;;
43710;SDS011;29309;42.682;23.372;2022-12-18T09:44:13;16.02;;;8.25;;
43710;SDS011;29309;42.682;23.372;2022-12-18T09:46:44;24.23;;;9.85;;
43710;SDS011;29309;42.682;23.372;2022-12-18T09:49:19;18.23;;;9.30;;
43710;SDS011;29309;42.682;23.372;2022-12-18T09:52:32;18.27;;;9.40;;
43710;SDS011;29309;42.682;23.372;2022-12-18T09:57:39;20.92;;;9.45;;
43710;SDS011;29309;42.682;23.372;2022-12-18T10:00:19;21.30;;;9.98;;
43710;SDS011;29309;42.682;23.372;2022-12-18T10:02:47;22.08;;;10.00;;
43710;SDS011;29309;42.682;23.372;2022-12-18T10:05:18;19.55;;;10.30;;
43710;SDS011;29309;42.682;23.372;2022-12-18T10:10:51;20.08;;;9.73;;
43710;SDS011;29309;42.682;23.372;2022-12-18T10:22:17;17.98;;;8.98;;
43710;SDS011;29309;42.682;23.372;2022-12-18T10:27:47;21.05;;;9.00;;
43710;SDS011;29309;42.682;23.372;2022-12-18T10:30:17;17.48;;;9.48;;
43710;SDS011;29309;42.682;23.372;2022-12-18T10:32:45;18.92;;;8.35;;
43710;SDS011;29309;42.682;23.372;2022-12-18T10:35:16;15.77;;;8.18;;
43710;SDS011;29309;42.682;23.372;2022-12-18T10:40:56;18.83;;;8.98;;
43710;SDS011;29309;42.682;23.372;2022-12-18T10:48:36;19.23;;;9.50;;
43710;SDS011;29309;42.682;23.372;2022-12-18T10:53:55;19.77;;;9.38;;
43710;SDS011;29309;42.682;23.372;2022-12-18T10:56:27;18.38;;;9.35;;
43710;SDS011;29309;42.682;23.372;2022-12-18T10:59:08;19.48;;;9.27;;
43710;SDS011;29309;42.682;23.372;2022-12-18T11:01:54;18.50;;;9.05;;
43710;SDS011;29309;42.682;23.372;2022-12-18T11:07:01;18.20;;;8.43;;
43710;SDS011;29309;42.682;23.372;2022-12-18T11:09:35;21.40;;;10.07;;
43710;SDS011;29309;42.682;23.372;2022-12-18T11:12:23;23.73;;;10.68;;
43710;SDS011;29309;42.682;23.372;2022-12-18T11:14:49;19.92;;;9.93;;
43710;SDS011;29309;42.682;23.372;2022-12-18T11:17:29;19.00;;;9.25;;
43710;SDS011;29309;42.682;23.372;2022-12-18T11:20:06;21.33;;;9.23;;
43710;SDS011;29309;42.682;23.372;2022-12-18T11:22:55;24.42;;;9.50;;
43710;SDS011;29309;42.682;23.372;2022-12-18T11:25:23;20.58;;;9.73;;
43710;SDS011;29309;42.682;23.372;2022-12-18T11:27:54;19.23;;;8.85;;
43710;SDS011;29309;42.682;23.372;2022-12-18T11:30:29;17.52;;;9.52;;
43710;SDS011;29309;42.682;23.372;2022-12-18T11:35:42;20.15;;;10.10;;
43710;SDS011;29309;42.682;23.372;2022-12-18T11:38:16;21.17;;;10.95;;
43710;SDS011;29309;42.682;23.372;2022-12-18T11:40:53;22.13;;;10.43;;
43710;SDS011;29309;42.682;23.372;2022-12-18T11:43:26;25.35;;;11.32;;
43710;SDS011;29309;42.682;23.372;2022-12-18T11:45:59;20.98;;;9.85;;
43710;SDS011;29309;42.682;23.372;2022-12-18T11:48:41;20.92;;;9.57;;
43710;SDS011;29309;42.682;23.372;2022-12-18T11:51:17;21.52;;;10.40;;
43710;SDS011;29309;42.682;23.372;2022-12-18T11:53:51;20.52;;;10.18;;
43710;SDS011;29309;42.682;23.372;2022-12-18T11:56:32;19.90;;;9.18;;
43710;SDS011;29309;42.682;23.372;2022-12-18T12:07:28;20.60;;;9.45;;
43710;SDS011;29309;42.682;23.372;2022-12-18T12:12:37;21.73;;;10.30;;
43710;SDS011;29309;42.682;23.372;2022-12-18T12:15:17;25.52;;;10.65;;
43710;SDS011;29309;42.682;23.372;2022-12-18T12:26:45;22.45;;;11.15;;
43710;SDS011;29309;42.682;23.372;2022-12-18T12:37:10;20.33;;;10.10;;
43710;SDS011;29309;42.682;23.372;2022-12-18T12:40:03;20.77;;;10.55;;
43710;SDS011;29309;42.682;23.372;2022-12-18T12:42:31;19.67;;;9.27;;
43710;SDS011;29309;42.682;23.372;2022-12-18T12:45:33;23.27;;;9.52;;
43710;SDS011;29309;42.682;23.372;2022-12-18T12:48:02;17.38;;;9.27;;
43710;SDS011;29309;42.682;23.372;2022-12-18T12:50:33;19.48;;;9.98;;
43710;SDS011;29309;42.682;23.372;2022-12-18T12:53:00;19.98;;;8.93;;
43710;SDS011;29309;42.682;23.372;2022-12-18T12:55:31;18.40;;;9.07;;
43710;SDS011;29309;42.682;23.372;2022-12-18T13:01:15;24.48;;;11.25;;
43710;SDS011;29309;42.682;23.372;2022-12-18T13:09:09;21.48;;;11.63;;
43710;SDS011;29309;42.682;23.372;2022-12-18T13:14:27;20.55;;;10.00;;
43710;SDS011;29309;42.682;23.372;2022-12-18T13:25:04;22.90;;;10.65;;
43710;SDS011;29309;42.682;23.372;2022-12-18T13:28:06;21.92;;;9.98;;
43710;SDS011;29309;42.682;23.372;2022-12-18T13:33:45;23.77;;;11.38;;
43710;SDS011;29309;42.682;23.372;2022-12-18T13:35:58;25.52;;;11.65;;
43710;SDS011;29309;42.682;23.372;2022-12-18T13:38:33;22.73;;;10.73;;
43710;SDS011;29309;42.682;23.372;2022-12-18T13:41:00;23.17;;;10.02;;
43710;SDS011;29309;42.682;23.372;2022-12-18T13:49:03;17.40;;;9.52;;
43710;SDS011;29309;42.682;23.372;2022-12-18T13:51:46;22.67;;;11.85;;
43710;SDS011;29309;42.682;23.372;2022-12-18T13:56:45;18.40;;;10.23;;
43710;SDS011;29309;42.682;23.372;2022-12-18T13:59:16;22.33;;;9.82;;
43710;SDS011;29309;42.682;23.372;2022-12-18T14:02:28;18.38;;;9.60;;
43710;SDS011;29309;42.682;23.372;2022-12-18T14:04:37;21.98;;;10.38;;
43710;SDS011;29309;42.682;23.372;2022-12-18T14:09:29;24.00;;;9.93;;
43710;SDS011;29309;42.682;23.372;2022-12-18T14:12:00;23.25;;;11.02;;
43710;SDS011;29309;42.682;23.372;2022-12-18T14:14:45;29.08;;;12.40;;
43710;SDS011;29309;42.682;23.372;2022-12-18T14:17:13;19.92;;;10.48;;
43710;SDS011;29309;42.682;23.372;2022-12-18T14:19:46;21.13;;;10.05;;
43710;SDS011;29309;42.682;23.372;2022-12-18T14:22:23;21.58;;;10.40;;
43710;SDS011;29309;42.682;23.372;2022-12-18T14:25:05;22.08;;;10.57;;
43710;SDS011;29309;42.682;23.372;2022-12-18T14:27:36;19.05;;;9.68;;
43710;SDS011;29309;42.682;23.372;2022-12-18T14:30:22;24.65;;;8.98;;
43710;SDS011;29309;42.682;23.372;2022-12-18T14:33:01;19.88;;;9.98;;
43710;SDS011;29309;42.682;23.372;2022-12-18T14:35:28;19.80;;;9.68;;
43710;SDS011;29309;42.682;23.372;2022-12-18T14:38:07;20.27;;;9.35;;
43710;SDS011;29309;42.682;23.372;2022-12-18T14:40:43;17.75;;;9.57;;
43710;SDS011;29309;42.682;23.372;2022-12-18T14:43:10;19.63;;;10.32;;
43710;SDS011;29309;42.682;23.372;2022-12-18T14:45:39;21.00;;;9.00;;
43710;SDS011;29309;42.682;23.372;2022-12-18T14:48:52;18.40;;;8.95;;
43710;SDS011;29309;42.682;23.372;2022-12-18T14:50:56;20.70;;;9.90;;
43710;SDS011;29309;42.682;23.372;2022-12-18T14:53:48;20.88;;;10.35;;
43710;SDS011;29309;42.682;23.372;2022-12-18T14:56:43;21.58;;;8.63;;
43710;SDS011;29309;42.682;23.372;2022-12-18T14:59:14;18.38;;;8.65;;
43710;SDS011;29309;42.682;23.372;2022-12-18T15:01:46;17.08;;;7.78;;
43710;SDS011;29309;42.682;23.372;2022-12-18T15:04:35;17.35;;;9.02;;
43710;SDS011;29309;42.682;23.372;2022-12-18T15:09:42;20.48;;;8.75;;
43710;SDS011;29309;42.682;23.372;2022-12-18T15:12:24;18.95;;;9.00;;
43710;SDS011;29309;42.682;23.372;2022-12-18T15:26:10;15.73;;;7.60;;
43710;SDS011;29309;42.682;23.372;2022-12-18T15:28:48;15.90;;;8.15;;
43710;SDS011;29309;42.682;23.372;2022-12-18T15:33:44;19.15;;;9.98;;
43710;SDS011;29309;42.682;23.372;2022-12-18T15:36:25;18.95;;;9.18;;
43710;SDS011;29309;42.682;23.372;2022-12-18T15:38:51;18.90;;;8.68;;
43710;SDS011;29309;42.682;23.372;2022-12-18T15:41:19;22.55;;;9.90;;
43710;SDS011;29309;42.682;23.372;2022-12-18T15:43:46;17.85;;;8.82;;
43710;SDS011;29309;42.682;23.372;2022-12-18T15:46:14;18.13;;;8.63;;
43710;SDS011;29309;42.682;23.372;2022-12-18T15:48:41;17.63;;;9.93;;
43710;SDS011;29309;42.682;23.372;2022-12-18T15:51:13;20.60;;;10.07;;
43710;SDS011;29309;42.682;23.372;2022-12-18T15:53:41;19.95;;;9.23;;
43710;SDS011;29309;42.682;23.372;2022-12-18T15:56:09;19.73;;;9.93;;
43710;SDS011;29309;42.682;23.372;2022-12-18T15:58:55;16.70;;;8.63;;
43710;SDS011;29309;42.682;23.372;2022-12-18T16:01:21;17.50;;;8.18;;
43710;SDS011;29309;42.682;23.372;2022-12-18T16:03:48;18.80;;;9.20;;
43710;SDS011;29309;42.682;23.372;2022-12-18T16:06:14;39.53;;;17.10;;
43710;SDS011;29309;42.682;23.372;2022-12-18T16:08:39;21.92;;;10.45;;
43710;SDS011;29309;42.682;23.372;2022-12-18T16:11:05;20.38;;;9.32;;
43710;SDS011;29309;42.682;23.372;2022-12-18T16:13:30;18.50;;;8.75;;
43710;SDS011;29309;42.682;23.372;2022-12-18T16:15:56;20.92;;;10.20;;
43710;SDS011;29309;42.682;23.372;2022-12-18T16:18:21;22.52;;;10.00;;
43710;SDS011;29309;42.682;23.372;2022-12-18T16:20:47;23.20;;;9.00;;
43710;SDS011;29309;42.682;23.372;2022-12-18T16:23:12;19.02;;;9.10;;
43710;SDS011;29309;42.682;23.372;2022-12-18T16:25:38;21.48;;;10.13;;
43710;SDS011;29309;42.682;23.372;2022-12-18T16:28:03;23.25;;;9.77;;
43710;SDS011;29309;42.682;23.372;2022-12-18T16:30:29;18.52;;;8.98;;
43710;SDS011;29309;42.682;23.372;2022-12-18T16:32:57;17.83;;;8.68;;
43710;SDS011;29309;42.682;23.372;2022-12-18T16:35:23;21.00;;;9.20;;
43710;SDS011;29309;42.682;23.372;2022-12-18T16:37:49;20.98;;;10.15;;
43710;SDS011;29309;42.682;23.372;2022-12-18T16:40:15;34.55;;;16.60;;
43710;SDS011;29309;42.682;23.372;2022-12-18T16:42:42;26.63;;;12.45;;
43710;SDS011;29309;42.682;23.372;2022-12-18T16:45:10;24.58;;;10.93;;
43710;SDS011;29309;42.682;23.372;2022-12-18T16:47:38;19.65;;;9.75;;
43710;SDS011;29309;42.682;23.372;2022-12-18T16:50:04;20.23;;;8.90;;
43710;SDS011;29309;42.682;23.372;2022-12-18T16:52:30;24.02;;;9.75;;
43710;SDS011;29309;42.682;23.372;2022-12-18T16:54:55;16.90;;;8.20;;
43710;SDS011;29309;42.682;23.372;2022-12-18T16:57:21;21.75;;;9.38;;
43710;SDS011;29309;42.682;23.372;2022-12-18T16:59:47;24.15;;;11.02;;
43710;SDS011;29309;42.682;23.372;2022-12-18T17:02:14;22.48;;;9.88;;